Last 30 Days

Squaw-Red Dog 6200'

Daily Data | America/Los_Angeles
as of 10/18/19 7:13 AM PDT
Date Daily Max Temp (°F) Max Temp Time Daily Min Temp (°F) Min Temp Time Daily Rain (In) New Snow (in) SnowDepth (in) Wind Spd (mph) Daily Max Wind (mph) Max Wind Time Max Wind Dir (°) Max RH (%) Min RH (%) Wet Bulb (°F) WetB Hrs <28F (hrs) Bat Volt Min Day (V)
10/17/19 52.5 0001 28.5 2357 0.00 82.1 19.6 6.8 34.7 0001 NNE | 26 93 30 37.6 0.9 12.44
10/16/19 64.3 1339 30.9 0404 0.00 84.4 16.6 5.8 29.6 2359 NE | 37 77 16 37.5 5.8 12.44
10/15/19 66.5 1404 28.5 0622 0.00 82.8 20.2 1.8 17.2 1515 NE | 34 90 13 35.8 9.0 12.44
10/14/19 66.8 1552 25.1 0732 0.00 84.0 16.1 1.5 9.3 1642 N | 6 76 17 34.2 - 12.46
10/13/19 59.8 1313 29.5 0658 0.00 84.5 15.8 2.3 15.5 1318 NNE | 23 77 15 34.2 7.0 12.47
10/12/19 65.3 1359 25.8 0715 0.00 80.5 18.0 1.5 12.2 1452 NW | 325 82 23 35.0 - 12.46
10/11/19 65.9 1521 21.4 0656 0.00 84.3 15.7 1.1 9.8 1553 NE | 43 77 18 31.1 - 12.47
10/10/19 54.2 1449 26.0 0809 0.00 82.6 19.6 2.0 13.2 1201 SE | 141 63 11 29.0 - 12.40
10/9/19 54.0 0238 30.2 2246 0.00 87.0 20.2 6.2 23.0 0403 N | 10 67 30 37.7 9.3 12.41
10/8/19 67.0 1407 30.3 0657 0.00 84.7 20.0 4.0 17.9 2342 NE | 38 81 21 39.2 0.0 12.41
10/7/19 69.4 1533 32.7 0658 0.00 85.6 14.8 1.7 14.4 1453 N | 5 94 13 39.7 0.0 12.41
10/6/19 72.0 1537 30.2 0708 0.00 80.0 14.0 1.7 11.4 1606 NNE | 13 92 23 40.4 0.0 12.41
10/5/19 67.4 1529 28.0 0720 0.00 85.0 14.3 1.8 12.1 1405 NE | 41 98 20 38.0 3.1 12.39
10/4/19 59.7 1604 31.5 0727 0.00 87.1 15.1 4.2 22.6 0331 NNE | 18 81 13 36.2 0.0 12.41
10/3/19 55.0 1347 28.1 0640 0.00 89.0 19.5 5.9 23.7 1501 NNE | 22 94 24 35.3 4.5 12.42
10/2/19 61.9 1310 24.2 0711 0.00 83.2 18.3 1.7 12.9 1524 NNW | 340 98 17 34.6 - 12.42
10/1/19 53.4 1607 25.5 0112 0.00 86.5 18.1 1.0 9.4 1240 SSW | 207 96 33 31.5 - 12.41
9/30/19 40.2 1548 26.8 2309 0.00 82.6 17.4 5.2 21.9 0004 NNE | 27 98 55 31.3 8.3 12.48
9/29/19 38.7 1635 30.1 0143 0.00 80.6 1.6 5.5 19.2 2308 NNE | 17 98 55 31.3 0.0 12.48
9/28/19 52.4 0049 30.3 2359 0.00 81.7 - 9.9 30.1 1057 NNE | 28 98 48 38.9 0.0 12.48
9/27/19 65.4 1427 51.2 2326 0.00 77.3 8.1 8.8 25.0 2205 NNE | 33 76 42 50.6 0.0 12.49
9/26/19 75.6 1411 40.5 0715 0.00 75.4 17.7 4.0 18.3 1437 N | 1 96 32 50.6 0.0 12.43
9/25/19 76.1 1631 39.1 0655 0.00 85.3 11.0 1.6 11.5 1040 SSE | 166 96 33 48.9 0.0 12.44
9/24/19 77.0 1605 35.0 0713 0.00 79.4 10.8 1.5 11.0 1302 SSW | 206 97 23 45.5 0.0 12.49
9/23/19 66.5 1558 34.8 0646 0.00 78.9 10.8 2.5 14.8 1234 SSE | 163 99 33 44.1 0.0 12.48
9/22/19 66.3 1312 35.0 0550 0.00 81.8 20.9 4.5 21.0 1158 NNE | 31 100 26 44.0 0.0 12.48
9/21/19 70.0 1558 30.4 0641 0.00 79.8 19.6 1.3 10.1 1326 SSE | 156 99 24 41.4 0.0 12.48
9/20/19 64.0 1510 31.0 0727 0.00 76.9 15.5 1.7 12.0 1359 SSE | 156 100 34 40.7 0.0 12.48
9/19/19 54.0 1550 35.1 0706 0.00 81.3 9.9 2.3 14.1 1347 NNE | 24 100 48 40.5 0.0 12.46
9/18/19 51.3 0013 38.1 0001 0.00 77.2 19.1 8.6 33.2 1704 NNE | 23 95 19 41.2 0.0 12.49
Max 77.0 - 51.2 - 0.00 89.0 20.9 9.9 34.7 - - 100 55 50.6 9.3 12.49
Avg - - - - - 82.4 15.8 3.6 - - - - - 38.5 - -
Min 38.7 - 21.4 - 0.00 75.4 1.6 1.0 9.3 - - 63 11 29.0 0.0 12.39